• Join FlightAware (Why Join?)
  • Login
  • US Flag 
03:00PM EDT


 

Airport Tracker/Info


-or-


 

Live Flight TrackerFlight Track Log ✈ N502QS ✈ 03-Sep-2013 ✈ KBGR - KBPT

Flight Track Log - Related Links

Times and Time Zones

All times are in EDT time to prevent confusion due to time zone crossing. See the N502QS flight status page for this flight to view local times or setup timezone preferences in your user account.

Time Position Orientation Groundspeed Altitude Reporting Facility
EDT Latitude Longitude Course Direction KTS MPH feet Rate Location/Type
02:08PM 44.7097 -68.7828 185° South 198 228 6,000  Level Boston Center
02:09PM 44.6642 -68.8586 230° Southwest 189 217 8,400 2,340 Climbing Boston Center
02:10PM 44.6164 -68.9372 230° Southwest 233 268 10,700 2,160 Climbing Boston Center
02:11PM 44.5608 -69.0281 229° Southwest 271 312 12,700 2,040 Climbing Boston Center
02:12PM 44.4953 -69.1367 230° Southwest 311 358 14,800 1,980 Climbing Boston Center
02:13PM 44.3657 -69.5683 227° Southwest  Level FlightAware Approximate
02:13PM 44.4314 -69.2392 229° Southwest 341 392 16,800  Level Boston Center
02:14PM 44.3636 -69.3503 230° Southwest 361 415 19,000 2,100 Climbing Boston Center
02:15PM 44.2936 -69.4611 229° Southwest 374 430 21,000 2,040 Climbing Boston Center
02:16PM 44.2217 -69.5778 229° Southwest 387 445 23,100 1,980 Climbing Boston Center
02:17PM 44.1644 -69.7136 240° Southwest 404 465 25,100 1,980 Climbing Boston Center
02:18PM 44.1197 -69.8603 247° West 409 471 27,100 1,980 Climbing Boston Center
02:19PM 44.0667 -70.0072 243° Southwest 415 478 29,100 1,980 Climbing Boston Center
02:20PM 43.9900 -70.1258 228° Southwest 421 484 31,100 1,800 Climbing Boston Center
02:21PM 43.9294 -70.2175 227° Southwest 416 479 32,800 1,980 Climbing Boston Center
02:22PM 43.8339 -70.3564 226° Southwest 416 479 35,200 1,980 Climbing Boston Center
02:23PM 43.7650 -70.4592 227° Southwest 416 479 36,800 1,800 Climbing Boston Center
02:24PM 43.6897 -70.5653 226° Southwest 400 460 38,800 1,860 Climbing Boston Center
02:25PM 43.6122 -70.6822 228° Southwest 393 452 40,500 1,320 Climbing Boston Center
02:26PM 43.5408 -70.7903 228° Southwest 382 440 41,500 840 Climbing Boston Center
02:27PM 43.4653 -70.8981 226° Southwest 387 445 42,300 600 Climbing Boston Center
02:28PM 43.3897 -71.0086 227° Southwest 392 451 42,800 300 Climbing Boston Center
02:29PM 43.3078 -71.1247 226° Southwest 404 465 43,000 60 Climbing Boston Center
02:30PM 43.2256 -71.2433 226° Southwest 419 482 43,000  Level Boston Center
02:31PM 43.1456 -71.3589 227° Southwest 424 488 43,000  Level Boston Center
02:32PM 43.0714 -71.4681 227° Southwest 429 494 43,000  Level Boston Center
02:33PM 42.9828 -71.5831 224° Southwest 418 481 43,000  Level Boston Center
02:34PM 42.9044 -71.6947 226° Southwest 407 468 43,000  Level Boston Center
02:35PM 42.8239 -71.8061 225° Southwest 407 468 43,000  Level Boston Center
02:36PM 42.7453 -71.9172 226° Southwest 407 468 43,000  Level Boston Center
02:37PM 42.6644 -72.0278 225° Southwest 407 468 43,000  Level Boston Center
02:38PM 42.5833 -72.1383 225° Southwest 407 468 43,000  Level Boston Center
02:39PM 42.5067 -72.2458 226° Southwest 407 468 43,000  Level Boston Center
02:40PM 42.4317 -72.3389 222° Southwest 407 468 43,000  Level Boston Center
02:41PM 42.3483 -72.4428 223° Southwest 407 468 43,000  Level Boston Center
02:42PM 42.2567 -72.5636 224° Southwest 407 468 43,000  Level Boston Center
02:43PM 42.1708 -72.6697 223° Southwest 412 474 43,000  Level Boston Center
02:44PM 42.0894 -72.7758 224° Southwest 412 474 43,000  Level Boston Center
02:45PM 42.0183 -72.8647 223° Southwest 406 467 43,000  Level Boston Center
02:46PM 41.9364 -72.9703 224° Southwest 406 467 43,000  Level Boston Center
02:47PM 41.8400 -73.0950 224° Southwest 425 489 43,000  Level Boston Center
02:48PM 41.7558 -73.2025 224° Southwest 425 489 43,000  Level Boston Center
02:49PM 41.6800 -73.3211 229° Southwest 419 482 43,000  Level Boston Center
02:50PM 41.6061 -73.4394 230° Southwest 419 482 43,000  Level Boston Center
02:51PM 41.5469 -73.5356 231° Southwest 419 482 43,000  Level Boston Center
02:54PM 41.3700 -73.8233 231° Southwest 423 487 43,000  Level New York Center
02:55PM 41.2961 -73.9414 230° Southwest 423 487 43,000  Level New York Center
02:56PM 41.2261 -74.0650 233° Southwest 423 487 43,000  Level New York Center
02:57PM 41.1497 -74.1878 230° Southwest 428 493 43,000  Level New York Center
02:58PM 41.0733 -74.3022 228° Southwest 428 493 43,000  Level New York Center
02:59PM 40.9986 -74.4278 232° Southwest 433 498 43,000  Level New York Center
03:00PM 40.9261 -74.5472 231° Southwest 433 498 43,000  Level New York Center
03:01PM 40.8494 -74.6692 230° Southwest 433 498 43,000  Level New York Center
03:02PM 40.7764 -74.7939 232° Southwest 433 498 43,000  Level New York Center
03:03PM 40.7014 -74.9125 230° Southwest 433 498 43,000  Level New York Center
03:04PM 40.6264 -75.0339 231° Southwest 433 498 43,000  Level New York Center
03:05PM 40.5511 -75.1547 231° Southwest 433 498 43,000  Level New York Center
03:06PM 40.4736 -75.2753 230° Southwest 433 498 43,000  Level New York Center
03:07PM 40.3869 -75.4142 231° Southwest 439 505 43,000  Level New York Center
03:08PM 40.3133 -75.5344 231° Southwest 439 505 43,000  Level New York Center
03:09PM 40.2353 -75.6569 230° Southwest 439 505 43,000  Level New York Center
03:10PM 40.1572 -75.7792 230° Southwest 439 505 43,000  Level New York Center
03:11PM 40.0814 -75.8983 230° Southwest 439 505 43,000  Level New York Center
03:12PM 40.0031 -76.0200 230° Southwest 439 505 43,000  Level New York Center
03:13PM 39.9228 -76.1358 228° Southwest 434 499 43,000  Level New York Center
03:14PM 39.8531 -76.2467 231° Southwest 443 510 43,000  Level New York Center
03:15PM 39.7294 -76.4306 229° Southwest 448 516 43,000  Level Washington Center
03:16PM 39.6578 -76.5403 230° Southwest 448 516 43,000  Level Washington Center
03:17PM 39.5778 -76.6603 229° Southwest 453 521 43,000  Level Washington Center
03:18PM 39.4994 -76.7803 230° Southwest 453 521 43,000  Level Washington Center
03:19PM 39.4169 -76.9025 229° Southwest 453 521 43,000  Level Washington Center
03:20PM 39.3383 -77.0219 230° Southwest 453 521 43,000  Level Washington Center
03:21PM 39.2600 -77.1383 229° Southwest 453 521 43,000  Level Washington Center
03:22PM 39.1811 -77.2572 229° Southwest 453 521 43,000  Level Washington Center
03:23PM 39.1025 -77.3756 229° Southwest 453 521 43,000  Level Washington Center
03:24PM 39.0236 -77.4914 229° Southwest 453 521 43,000  Level Washington Center
03:25PM 38.9336 -77.6250 229° Southwest 453 521 43,000  Level Washington Center
03:26PM 38.8547 -77.7403 229° Southwest 448 516 43,000  Level Washington Center
03:27PM 38.7667 -77.8708 229° Southwest 469 540 43,000  Level Washington Center
03:28PM 38.6875 -77.9828 228° Southwest 462 532 43,000  Level Washington Center
03:29PM 38.6078 -78.0997 229° Southwest 448 516 43,000  Level Washington Center
03:30PM 38.5261 -78.2189 229° Southwest 448 516 43,000  Level Washington Center
03:31PM 38.4442 -78.3353 228° Southwest 453 521 43,000  Level Washington Center
03:32PM 38.3622 -78.4569 229° Southwest 453 521 43,000  Level Washington Center
03:33PM 38.2781 -78.5753 228° Southwest 453 521 43,000  Level Washington Center
03:34PM 38.2086 -78.6808 230° Southwest 448 516 43,000  Level Washington Center
03:35PM 38.1156 -78.8117 228° Southwest 448 516 43,000  Level Washington Center
03:36PM 38.0331 -78.9294 228° Southwest 453 521 43,000  Level Washington Center
03:37PM 37.9506 -79.0469 228° Southwest 453 521 43,000  Level Washington Center
03:38PM 37.8783 -79.1592 231° Southwest 453 521 43,000  Level Washington Center
03:39PM 37.8094 -79.2981 238° Southwest 460 529 43,000  Level Washington Center
03:40PM 37.7447 -79.4339 239° Southwest 460 529 43,000  Level Washington Center
03:41PM 37.6669 -79.5822 237° Southwest 465 535 43,000  Level Washington Center
03:42PM 37.5953 -79.7225 237° Southwest 465 535 43,000  Level Washington Center
03:43PM 37.5322 -79.8553 239° Southwest 479 551 43,000  Level Washington Center
03:44PM 37.4606 -79.9928 237° Southwest 485 558 43,000  Level Washington Center
03:45PM 37.3633 -80.1772 236° Southwest 459 528 43,000  Level Atlanta Center
03:46PM 37.2906 -80.3189 237° Southwest 472 543 43,000  Level Atlanta Center
03:47PM 37.2194 -80.4553 237° Southwest 478 550 43,000  Level Atlanta Center
03:48PM 37.1406 -80.6072 237° Southwest 478 550 43,000  Level Atlanta Center
03:49PM 37.0672 -80.7508 237° Southwest 484 557 43,000  Level Atlanta Center
03:50PM 36.9981 -80.8889 238° Southwest 484 557 43,000  Level Atlanta Center
03:51PM 36.9264 -81.0294 237° Southwest 484 557 43,000  Level Atlanta Center
03:52PM 36.8647 -81.1536 238° Southwest 484 557 43,000  Level Atlanta Center
03:53PM 36.7908 -81.2886 236° Southwest 484 557 43,000  Level Atlanta Center
03:54PM 36.7189 -81.4414 240° Southwest 477 549 43,000  Level Atlanta Center
03:55PM 36.6447 -81.5808 236° Southwest 472 543 43,000  Level Atlanta Center
03:56PM 36.5742 -81.7122 236° Southwest 472 543 43,000  Level Atlanta Center
03:57PM 36.5061 -81.8536 239° Southwest 477 549 43,000  Level Atlanta Center
03:58PM 36.4292 -81.9925 235° Southwest 487 560 43,000  Level Atlanta Center
03:59PM 36.3564 -82.1336 237° Southwest 487 560 43,000  Level Atlanta Center
04:00PM 36.2894 -82.2589 236° Southwest 487 560 43,000  Level Atlanta Center
04:01PM 36.2161 -82.3917 236° Southwest 487 560 43,000  Level Atlanta Center
04:02PM 36.1450 -82.5319 238° Southwest 487 560 43,000  Level Atlanta Center
04:03PM 36.0694 -82.6694 236° Southwest 487 560 43,000  Level Atlanta Center
04:04PM 35.9958 -82.8094 237° Southwest 487 560 43,000  Level Atlanta Center
04:05PM 35.9219 -82.9439 236° Southwest 487 560 43,000  Level Atlanta Center
04:06PM 35.8481 -83.0831 237° Southwest 487 560 43,000  Level Atlanta Center
04:07PM 35.7678 -83.2350 237° Southwest 487 560 43,000  Level Atlanta Center
04:08PM 35.6914 -83.3714 235° Southwest 487 560 43,000  Level Atlanta Center
04:09PM 35.6169 -83.5125 237° Southwest 487 560 43,000  Level Atlanta Center
04:10PM 35.5425 -83.6458 236° Southwest 487 560 43,000  Level Atlanta Center
04:11PM 35.4678 -83.7836 236° Southwest 487 560 43,000  Level Atlanta Center
04:12PM 35.3906 -83.9217 236° Southwest 487 560 43,000  Level Atlanta Center
04:13PM 35.3136 -84.0592 236° Southwest 487 560 43,000  Level Atlanta Center
04:14PM 35.2361 -84.1964 235° Southwest 492 566 43,000  Level Atlanta Center
04:15PM 35.1608 -84.3333 236° Southwest 492 566 43,000  Level Atlanta Center
04:16PM 35.0936 -84.4550 236° Southwest 487 560 43,000  Level Atlanta Center
04:17PM 35.0161 -84.5917 235° Southwest 487 560 43,000  Level Atlanta Center
04:18PM 34.9361 -84.7278 234° Southwest 487 560 43,000  Level Atlanta Center
04:19PM 34.8600 -84.8639 236° Southwest 487 560 43,000  Level Atlanta Center
04:20PM 34.7839 -84.9997 236° Southwest 487 560 43,000  Level Atlanta Center
04:21PM 34.7056 -85.1378 235° Southwest 487 560 43,000  Level Atlanta Center
04:22PM 34.6272 -85.2731 235° Southwest 487 560 43,000  Level Atlanta Center
04:23PM 34.5506 -85.4058 235° Southwest 492 566 43,000  Level Atlanta Center
04:24PM 34.4717 -85.5431 235° Southwest 492 566 43,000  Level Atlanta Center
04:25PM 34.3928 -85.6775 235° Southwest 492 566 43,000  Level Atlanta Center
04:26PM 34.3219 -85.8119 237° Southwest 487 560 43,000  Level Atlanta Center
04:27PM 34.2389 -85.9383 232° Southwest 487 560 43,000  Level Atlanta Center
04:28PM 34.1594 -86.0772 235° Southwest 492 566 43,000  Level Atlanta Center
04:29PM 34.0778 -86.2108 234° Southwest 498 573 43,000  Level Atlanta Center
04:30PM 34.0003 -86.3442 235° Southwest 498 573 43,000  Level Atlanta Center
04:31PM 33.9619 -86.4933 253° West 478 550 43,000  Level Atlanta Center
04:32PM 33.9294 -86.6500 256° West 478 550 43,000  Level Atlanta Center
04:33PM 33.8925 -86.8042 254° West 478 550 43,000  Level Atlanta Center
04:34PM 33.8578 -86.9606 255° West 483 556 43,000  Level Atlanta Center
04:35PM 33.8206 -87.1117 254° West 483 556 43,000  Level Atlanta Center
04:38PM 33.7264 -87.4900 253° West 495 570 43,000  Level Memphis Center
04:39PM 33.6861 -87.6461 253° West 495 570 43,000  Level Memphis Center
04:40PM 33.6517 -87.8044 255° West 495 570 43,000  Level Memphis Center
04:41PM 33.6131 -87.9578 253° West 495 570 43,000  Level Memphis Center
04:42PM 33.5806 -88.1131 256° West 484 557 43,000  Level Memphis Center
04:43PM 33.5456 -88.2686 255° West 484 557 43,000  Level Memphis Center
04:44PM 33.5108 -88.4389 256° West 479 551 43,000  Level Memphis Center
04:45PM 33.4631 -88.5867 249° West 479 551 43,000  Level Memphis Center
04:46PM 33.4150 -88.7419 250° West 485 558 43,000  Level Memphis Center
04:47PM 33.3667 -88.8897 249° West 491 565 43,000  Level Memphis Center
04:48PM 33.3183 -89.0397 249° West 491 565 43,000  Level Memphis Center
04:49PM 33.2697 -89.1919 249° West 491 565 43,000  Level Memphis Center
04:50PM 33.2189 -89.3417 248° West 491 565 43,000  Level Memphis Center
04:51PM 33.1761 -89.4986 252° West 491 565 43,000  Level Memphis Center
04:52PM 33.1356 -89.6528 253° West 491 565 43,000  Level Memphis Center
04:53PM 33.0986 -89.7944 253° West 491 565 43,000  Level Memphis Center
04:54PM 33.0553 -89.9533 252° West 498 573 43,000  Level Memphis Center
04:55PM 33.0119 -90.1094 252° West 504 580 43,000  Level Memphis Center
04:56PM 32.9725 -90.2631 253° West 498 573 43,000  Level Memphis Center
04:57PM 32.9267 -90.4339 252° West 498 573 43,000  Level Memphis Center
04:58PM 32.8889 -90.5897 254° West 498 573 43,000  Level Memphis Center
04:59PM 32.8489 -90.7456 253° West 498 573 43,000  Level Memphis Center
05:00PM 32.8086 -90.9011 253° West 498 573 43,000  Level Memphis Center
05:01PM 32.7703 -91.0564 254° West 498 573 43,000  Level Memphis Center
05:03PM 32.6975 -91.3461 253° West 503 579 43,000 -240 Level Fort Worth Center
05:04PM 32.6569 -91.5019 253° West 503 579 42,300 -1,140 Descending Fort Worth Center
05:05PM 32.6161 -91.6575 253° West 503 579 40,800 -1,500 Descending Fort Worth Center
05:06PM 32.5258 -91.7839 230° Southwest 496 571 39,300 -1,500 Descending Fort Worth Center
05:07PM 32.4072 -91.8872 216° Southwest 496 571 37,800 -1,560 Descending Fort Worth Center
05:07PM 32.3433 -91.9428 216° Southwest 523 602 36,900 -1,500 Descending Houston Center
05:08PM 32.2264 -92.0469 217° Southwest 526 605 35,400 -1,620 Descending Houston Center
05:09PM 32.0867 -92.1722 217° Southwest 527 606 33,600 -1,620 Descending Houston Center
05:11PM 31.9703 -92.2756 217° Southwest 525 604 32,100 -1,500 Descending Houston Center
05:12PM 31.8519 -92.3806 217° Southwest 531 611 30,600 -1,200 Descending Houston Center
05:13PM 31.7325 -92.4861 217° Southwest 538 619 29,700 -840 Descending Houston Center
05:14PM 31.6167 -92.5894 217° Southwest 533 613 28,900 -720 Descending Houston Center
05:15PM 31.4792 -92.7117 217° Southwest 527 606 28,300 -480 Descending Houston Center
05:16PM 31.3644 -92.8094 216° Southwest 522 601 28,000 -900 Descending Houston Center
05:17PM 31.2511 -92.9078 217° Southwest 517 595 26,500 -1,500 Descending Houston Center
05:18PM 31.1419 -93.0011 216° Southwest 495 570 25,000 -1,680 Descending Houston Center
05:19PM 31.0422 -93.0875 217° Southwest 458 527 23,100 -2,100 Descending Houston Center
05:20PM 30.9108 -93.1567 204° Southwest 435 501 20,700 -2,280 Descending Houston Center
05:21PM 30.8067 -93.2011 200° South 405 466 18,400 -2,640 Descending Houston Center
05:22PM 30.7047 -93.2414 199° South 390 449 15,300 -3,000 Descending Houston Center
05:23PM 30.6025 -93.2783 197° South 386 444 12,200 -2,280 Descending Houston Center
05:24PM 30.5114 -93.3117 197° South 349 402 10,700 -2,400 Descending Houston Center
05:25PM 30.4153 -93.3556 201° Southwest 312 359 7,300 -2,760 Descending Houston Center
05:26PM 30.3711 -93.4033 223° Southwest 289 333 5,700 -1,620 Descending Houston Center
05:27PM 30.3358 -93.4883 244° Southwest 269 310 4,400 -900 Descending Houston Center
05:28PM 30.3042 -93.5461 238° Southwest 236 272 4,000 -240 Descending Houston Center
05:29PM 30.2606 -93.6128 233° Southwest 245 282 4,000  Level Houston Center
05:30PM 30.2169 -93.6769 232° Southwest 244 281 4,000  Level Houston Center
05:31PM 30.1883 -93.7464 245° Southwest 243 280 4,000 -240 Level Houston Center
05:32PM 30.1442 -93.8081 230° Southwest 243 280 3,600 -540 Descending Houston Center
05:33PM 30.1156 -93.8772 244° Southwest 221 254 3,000 -600 Descending Houston Center
05:34PM 30.0922 -93.9361 245° Southwest 201 231 2,400 -480 Descending Houston Center
05:35PM 30.0683 -93.9925 244° Southwest 201 231 2,100 -360 Descending Houston Center
05:35PM 30.0586 -94.0144 243° Southwest 209 241 1,900 -300 Descending Houston Center
05:36PM 30.0281 -94.0669 236° Southwest 200 230 1,700 -360 Descending Houston Center
05:38PM 29.9800 -94.0742 187° South 127 146 1,100 -540 Descending Houston Center
05:39PM 29.9622 -94.0428 123° Southeast 127 146 400 -780 Descending Houston Center
05:41PM 29.9500 -94.0167 90° East  Level FlightAware Approximate